sensor_id;sensor_type;location;lat;lon;timestamp;temperature;humidity
45283;DHT22;31023;44.994;1.796;2023-07-13T00:01:28;18.90;91.20
45283;DHT22;31023;44.994;1.796;2023-07-13T00:03:55;18.80;91.60
45283;DHT22;31023;44.994;1.796;2023-07-13T00:06:21;18.90;91.20
45283;DHT22;31023;44.994;1.796;2023-07-13T00:08:46;18.70;91.70
45283;DHT22;31023;44.994;1.796;2023-07-13T00:11:14;18.60;92.00
45283;DHT22;31023;44.994;1.796;2023-07-13T00:13:40;18.60;92.10
45283;DHT22;31023;44.994;1.796;2023-07-13T00:16:06;18.60;92.30
45283;DHT22;31023;44.994;1.796;2023-07-13T00:18:31;18.60;92.40
45283;DHT22;31023;44.994;1.796;2023-07-13T00:20:57;18.70;92.30
45283;DHT22;31023;44.994;1.796;2023-07-13T00:23:40;18.70;92.20
45283;DHT22;31023;44.994;1.796;2023-07-13T00:26:06;18.70;92.20
45283;DHT22;31023;44.994;1.796;2023-07-13T00:28:33;18.80;92.20
45283;DHT22;31023;44.994;1.796;2023-07-13T00:30:59;18.70;92.30
45283;DHT22;31023;44.994;1.796;2023-07-13T00:33:25;18.80;92.10
45283;DHT22;31023;44.994;1.796;2023-07-13T00:35:50;18.90;91.80
45283;DHT22;31023;44.994;1.796;2023-07-13T00:38:16;18.60;92.30
45283;DHT22;31023;44.994;1.796;2023-07-13T00:40:42;18.60;92.40
45283;DHT22;31023;44.994;1.796;2023-07-13T00:43:18;18.50;92.60
45283;DHT22;31023;44.994;1.796;2023-07-13T00:48:10;18.70;92.50
45283;DHT22;31023;44.994;1.796;2023-07-13T00:50:36;18.60;92.50
45283;DHT22;31023;44.994;1.796;2023-07-13T00:53:02;18.60;92.80
45283;DHT22;31023;44.994;1.796;2023-07-13T00:55:28;18.60;93.20
45283;DHT22;31023;44.994;1.796;2023-07-13T00:57:54;18.80;92.80
45283;DHT22;31023;44.994;1.796;2023-07-13T01:00:19;18.80;92.40
45283;DHT22;31023;44.994;1.796;2023-07-13T01:02:47;19.00;92.40
45283;DHT22;31023;44.994;1.796;2023-07-13T01:05:14;19.00;92.50
45283;DHT22;31023;44.994;1.796;2023-07-13T01:07:40;19.00;92.10
45283;DHT22;31023;44.994;1.796;2023-07-13T01:10:07;19.00;92.10
45283;DHT22;31023;44.994;1.796;2023-07-13T01:12:33;19.10;92.10
45283;DHT22;31023;44.994;1.796;2023-07-13T01:14:58;19.00;92.30
45283;DHT22;31023;44.994;1.796;2023-07-13T01:17:25;19.00;92.30
45283;DHT22;31023;44.994;1.796;2023-07-13T01:19:51;19.00;92.40
45283;DHT22;31023;44.994;1.796;2023-07-13T01:22:17;18.90;92.50
45283;DHT22;31023;44.994;1.796;2023-07-13T01:24:44;18.90;92.40
45283;DHT22;31023;44.994;1.796;2023-07-13T01:27:11;18.90;92.60
45283;DHT22;31023;44.994;1.796;2023-07-13T01:29:37;18.90;92.50
45283;DHT22;31023;44.994;1.796;2023-07-13T01:32:09;18.90;92.40
45283;DHT22;31023;44.994;1.796;2023-07-13T01:34:36;19.00;92.20
45283;DHT22;31023;44.994;1.796;2023-07-13T01:37:03;19.00;92.10
45283;DHT22;31023;44.994;1.796;2023-07-13T01:39:28;19.00;92.00
45283;DHT22;31023;44.994;1.796;2023-07-13T01:41:54;18.80;92.10
45283;DHT22;31023;44.994;1.796;2023-07-13T01:44:19;18.50;92.70
45283;DHT22;31023;44.994;1.796;2023-07-13T01:46:45;18.40;93.00
45283;DHT22;31023;44.994;1.796;2023-07-13T01:49:11;18.30;93.20
45283;DHT22;31023;44.994;1.796;2023-07-13T01:51:36;18.20;93.40
45283;DHT22;31023;44.994;1.796;2023-07-13T01:54:02;18.10;93.60
45283;DHT22;31023;44.994;1.796;2023-07-13T01:56:28;18.00;93.80
45283;DHT22;31023;44.994;1.796;2023-07-13T01:58:53;17.90;94.00
45283;DHT22;31023;44.994;1.796;2023-07-13T02:01:19;17.90;94.00
45283;DHT22;31023;44.994;1.796;2023-07-13T02:03:44;17.80;94.00
45283;DHT22;31023;44.994;1.796;2023-07-13T02:06:10;17.80;94.20
45283;DHT22;31023;44.994;1.796;2023-07-13T02:08:36;17.80;94.40
45283;DHT22;31023;44.994;1.796;2023-07-13T02:11:02;17.80;94.60
45283;DHT22;31023;44.994;1.796;2023-07-13T02:13:28;17.90;94.50
45283;DHT22;31023;44.994;1.796;2023-07-13T02:15:54;17.80;94.70
45283;DHT22;31023;44.994;1.796;2023-07-13T02:18:19;17.70;94.90
45283;DHT22;31023;44.994;1.796;2023-07-13T02:20:45;17.70;94.90
45283;DHT22;31023;44.994;1.796;2023-07-13T02:23:11;17.90;94.60
45283;DHT22;31023;44.994;1.796;2023-07-13T02:25:36;17.70;94.50
45283;DHT22;31023;44.994;1.796;2023-07-13T02:28:02;17.70;94.60
45283;DHT22;31023;44.994;1.796;2023-07-13T02:30:29;17.60;94.50
45283;DHT22;31023;44.994;1.796;2023-07-13T02:32:58;17.50;94.80
45283;DHT22;31023;44.994;1.796;2023-07-13T02:35:23;17.40;94.90
45283;DHT22;31023;44.994;1.796;2023-07-13T02:37:49;17.40;95.10
45283;DHT22;31023;44.994;1.796;2023-07-13T02:40:15;17.40;95.40
45283;DHT22;31023;44.994;1.796;2023-07-13T02:42:40;17.30;95.60
45283;DHT22;31023;44.994;1.796;2023-07-13T02:45:07;17.30;95.70
45283;DHT22;31023;44.994;1.796;2023-07-13T02:47:32;17.30;95.60
45283;DHT22;31023;44.994;1.796;2023-07-13T02:49:58;17.50;94.80
45283;DHT22;31023;44.994;1.796;2023-07-13T02:52:24;17.30;94.90
45283;DHT22;31023;44.994;1.796;2023-07-13T02:54:49;17.40;94.90
45283;DHT22;31023;44.994;1.796;2023-07-13T02:57:15;17.50;94.60
45283;DHT22;31023;44.994;1.796;2023-07-13T02:59:41;17.60;94.40
45283;DHT22;31023;44.994;1.796;2023-07-13T03:02:06;17.70;94.20
45283;DHT22;31023;44.994;1.796;2023-07-13T03:04:32;17.70;94.00
45283;DHT22;31023;44.994;1.796;2023-07-13T03:06:57;17.50;94.30
45283;DHT22;31023;44.994;1.796;2023-07-13T03:09:26;17.50;94.60
45283;DHT22;31023;44.994;1.796;2023-07-13T03:11:52;17.40;94.70
45283;DHT22;31023;44.994;1.796;2023-07-13T03:14:18;17.40;94.70
45283;DHT22;31023;44.994;1.796;2023-07-13T03:16:44;17.40;94.50
45283;DHT22;31023;44.994;1.796;2023-07-13T03:19:09;17.40;94.50
45283;DHT22;31023;44.994;1.796;2023-07-13T03:21:35;17.30;94.50
45283;DHT22;31023;44.994;1.796;2023-07-13T03:24:00;17.30;94.60
45283;DHT22;31023;44.994;1.796;2023-07-13T03:26:26;17.20;94.70
45283;DHT22;31023;44.994;1.796;2023-07-13T03:28:51;17.10;95.00
45283;DHT22;31023;44.994;1.796;2023-07-13T03:31:18;16.90;95.10
45283;DHT22;31023;44.994;1.796;2023-07-13T03:33:44;16.90;95.40
45283;DHT22;31023;44.994;1.796;2023-07-13T03:36:12;16.70;95.70
45283;DHT22;31023;44.994;1.796;2023-07-13T03:38:38;16.70;96.10
45283;DHT22;31023;44.994;1.796;2023-07-13T03:41:04;16.70;96.30
45283;DHT22;31023;44.994;1.796;2023-07-13T03:43:29;16.90;95.70
45283;DHT22;31023;44.994;1.796;2023-07-13T03:45:55;16.80;95.70
45283;DHT22;31023;44.994;1.796;2023-07-13T03:48:20;16.70;95.70
45283;DHT22;31023;44.994;1.796;2023-07-13T03:50:46;16.60;96.50
45283;DHT22;31023;44.994;1.796;2023-07-13T03:53:12;16.70;96.30
45283;DHT22;31023;44.994;1.796;2023-07-13T03:55:38;16.50;96.60
45283;DHT22;31023;44.994;1.796;2023-07-13T04:00:47;16.70;96.10
45283;DHT22;31023;44.994;1.796;2023-07-13T04:03:13;16.70;96.20
45283;DHT22;31023;44.994;1.796;2023-07-13T04:05:38;16.80;95.80
45283;DHT22;31023;44.994;1.796;2023-07-13T04:08:05;16.80;95.80
45283;DHT22;31023;44.994;1.796;2023-07-13T04:10:31;16.90;95.60
45283;DHT22;31023;44.994;1.796;2023-07-13T04:12:56;16.80;95.40
45283;DHT22;31023;44.994;1.796;2023-07-13T04:15:22;16.90;95.20
45283;DHT22;31023;44.994;1.796;2023-07-13T04:17:48;16.80;95.00
45283;DHT22;31023;44.994;1.796;2023-07-13T04:20:13;16.90;94.70
45283;DHT22;31023;44.994;1.796;2023-07-13T04:22:39;16.90;94.50
45283;DHT22;31023;44.994;1.796;2023-07-13T04:25:04;17.00;94.40
45283;DHT22;31023;44.994;1.796;2023-07-13T04:27:30;17.10;93.80
45283;DHT22;31023;44.994;1.796;2023-07-13T04:29:56;17.00;93.50
45283;DHT22;31023;44.994;1.796;2023-07-13T04:32:21;17.00;93.50
45283;DHT22;31023;44.994;1.796;2023-07-13T04:34:47;16.80;93.60
45283;DHT22;31023;44.994;1.796;2023-07-13T04:37:12;16.70;93.70
45283;DHT22;31023;44.994;1.796;2023-07-13T04:39:38;16.70;93.90
45283;DHT22;31023;44.994;1.796;2023-07-13T04:42:04;16.60;93.70
45283;DHT22;31023;44.994;1.796;2023-07-13T04:44:29;16.60;94.00
45283;DHT22;31023;44.994;1.796;2023-07-13T04:46:55;16.60;93.90
45283;DHT22;31023;44.994;1.796;2023-07-13T04:49:20;16.60;93.90
45283;DHT22;31023;44.994;1.796;2023-07-13T04:51:46;16.60;93.70
45283;DHT22;31023;44.994;1.796;2023-07-13T04:54:11;16.70;93.40
45283;DHT22;31023;44.994;1.796;2023-07-13T04:56:37;16.70;93.00
45283;DHT22;31023;44.994;1.796;2023-07-13T04:59:02;16.80;92.90
45283;DHT22;31023;44.994;1.796;2023-07-13T05:01:28;16.80;92.90
45283;DHT22;31023;44.994;1.796;2023-07-13T05:03:54;16.80;92.80
45283;DHT22;31023;44.994;1.796;2023-07-13T05:06:21;16.90;92.60
45283;DHT22;31023;44.994;1.796;2023-07-13T05:08:47;17.00;92.50
45283;DHT22;31023;44.994;1.796;2023-07-13T05:11:12;17.60;91.80
45283;DHT22;31023;44.994;1.796;2023-07-13T05:13:38;19.00;87.80
45283;DHT22;31023;44.994;1.796;2023-07-13T05:16:04;20.40;81.30
45283;DHT22;31023;44.994;1.796;2023-07-13T05:18:31;21.50;77.40
45283;DHT22;31023;44.994;1.796;2023-07-13T05:20:57;21.50;75.40
45283;DHT22;31023;44.994;1.796;2023-07-13T05:23:23;20.20;79.40
45283;DHT22;31023;44.994;1.796;2023-07-13T05:25:48;20.60;79.40
45283;DHT22;31023;44.994;1.796;2023-07-13T05:28:14;21.80;75.20
45283;DHT22;31023;44.994;1.796;2023-07-13T05:30:39;23.00;71.80
45283;DHT22;31023;44.994;1.796;2023-07-13T05:33:05;23.10;70.00
45283;DHT22;31023;44.994;1.796;2023-07-13T05:35:30;23.40;68.00
45283;DHT22;31023;44.994;1.796;2023-07-13T05:37:56;23.50;66.80
45283;DHT22;31023;44.994;1.796;2023-07-13T05:40:21;23.30;69.60
45283;DHT22;31023;44.994;1.796;2023-07-13T05:42:47;23.80;66.60
45283;DHT22;31023;44.994;1.796;2023-07-13T05:45:13;24.20;65.30
45283;DHT22;31023;44.994;1.796;2023-07-13T05:47:38;24.70;64.20
45283;DHT22;31023;44.994;1.796;2023-07-13T05:50:04;25.40;62.40
45283;DHT22;31023;44.994;1.796;2023-07-13T05:52:29;25.90;61.10
45283;DHT22;31023;44.994;1.796;2023-07-13T05:54:55;26.40;60.20
45283;DHT22;31023;44.994;1.796;2023-07-13T05:57:21;26.20;59.30
45283;DHT22;31023;44.994;1.796;2023-07-13T05:59:46;26.40;58.70
45283;DHT22;31023;44.994;1.796;2023-07-13T06:02:13;26.40;58.80
45283;DHT22;31023;44.994;1.796;2023-07-13T06:04:39;26.00;59.10
45283;DHT22;31023;44.994;1.796;2023-07-13T06:07:05;26.40;59.00
45283;DHT22;31023;44.994;1.796;2023-07-13T06:09:30;26.80;58.70
45283;DHT22;31023;44.994;1.796;2023-07-13T06:11:56;27.40;56.40
45283;DHT22;31023;44.994;1.796;2023-07-13T06:14:22;27.60;55.70
45283;DHT22;31023;44.994;1.796;2023-07-13T06:16:47;27.10;55.60
45283;DHT22;31023;44.994;1.796;2023-07-13T06:19:13;26.80;57.00
45283;DHT22;31023;44.994;1.796;2023-07-13T06:21:38;27.60;55.20
45283;DHT22;31023;44.994;1.796;2023-07-13T06:24:04;28.00;53.10
45283;DHT22;31023;44.994;1.796;2023-07-13T06:26:29;28.10;54.00
45283;DHT22;31023;44.994;1.796;2023-07-13T06:28:55;28.50;52.40
45283;DHT22;31023;44.994;1.796;2023-07-13T06:31:21;28.80;52.10
45283;DHT22;31023;44.994;1.796;2023-07-13T06:33:46;28.80;52.60
45283;DHT22;31023;44.994;1.796;2023-07-13T06:36:12;28.40;53.70
45283;DHT22;31023;44.994;1.796;2023-07-13T06:38:37;28.20;53.10
45283;DHT22;31023;44.994;1.796;2023-07-13T06:41:04;28.00;54.70
45283;DHT22;31023;44.994;1.796;2023-07-13T06:43:29;29.10;51.90
45283;DHT22;31023;44.994;1.796;2023-07-13T06:45:57;29.50;51.30
45283;DHT22;31023;44.994;1.796;2023-07-13T06:48:22;29.70;50.40
45283;DHT22;31023;44.994;1.796;2023-07-13T06:50:48;28.80;51.60
45283;DHT22;31023;44.994;1.796;2023-07-13T06:53:15;30.40;50.80
45283;DHT22;31023;44.994;1.796;2023-07-13T06:55:43;29.60;50.50
45283;DHT22;31023;44.994;1.796;2023-07-13T06:58:08;26.70;55.80
45283;DHT22;31023;44.994;1.796;2023-07-13T07:00:34;25.50;58.70
45283;DHT22;31023;44.994;1.796;2023-07-13T07:02:59;24.80;60.00
45283;DHT22;31023;44.994;1.796;2023-07-13T07:05:25;24.70;61.10
45283;DHT22;31023;44.994;1.796;2023-07-13T07:07:51;24.20;61.70
45283;DHT22;31023;44.994;1.796;2023-07-13T07:10:17;23.40;64.30
45283;DHT22;31023;44.994;1.796;2023-07-13T07:12:42;23.70;64.80
45283;DHT22;31023;44.994;1.796;2023-07-13T07:15:08;23.80;63.90
45283;DHT22;31023;44.994;1.796;2023-07-13T07:17:34;23.90;64.20
45283;DHT22;31023;44.994;1.796;2023-07-13T07:19:59;24.30;62.80
45283;DHT22;31023;44.994;1.796;2023-07-13T07:22:25;25.20;60.50
45283;DHT22;31023;44.994;1.796;2023-07-13T07:24:53;25.90;59.20
45283;DHT22;31023;44.994;1.796;2023-07-13T07:27:18;29.70;51.40
45283;DHT22;31023;44.994;1.796;2023-07-13T07:29:44;30.10;48.80
45283;DHT22;31023;44.994;1.796;2023-07-13T07:32:09;27.50;53.20
45283;DHT22;31023;44.994;1.796;2023-07-13T07:34:35;25.90;55.80
45283;DHT22;31023;44.994;1.796;2023-07-13T07:37:01;25.70;58.70
45283;DHT22;31023;44.994;1.796;2023-07-13T07:39:27;25.70;59.00
45283;DHT22;31023;44.994;1.796;2023-07-13T07:41:54;24.10;61.30
45283;DHT22;31023;44.994;1.796;2023-07-13T07:44:20;24.10;61.80
45283;DHT22;31023;44.994;1.796;2023-07-13T07:46:46;24.30;61.50
45283;DHT22;31023;44.994;1.796;2023-07-13T07:49:11;24.30;60.50
45283;DHT22;31023;44.994;1.796;2023-07-13T07:51:37;24.40;61.40
45283;DHT22;31023;44.994;1.796;2023-07-13T07:54:03;24.50;61.60
45283;DHT22;31023;44.994;1.796;2023-07-13T07:56:29;24.60;61.70
45283;DHT22;31023;44.994;1.796;2023-07-13T07:58:55;24.10;61.90
45283;DHT22;31023;44.994;1.796;2023-07-13T08:01:20;24.00;62.80
45283;DHT22;31023;44.994;1.796;2023-07-13T08:03:46;26.40;60.70
45283;DHT22;31023;44.994;1.796;2023-07-13T08:06:11;31.30;50.80
45283;DHT22;31023;44.994;1.796;2023-07-13T08:08:37;33.60;45.40
45283;DHT22;31023;44.994;1.796;2023-07-13T08:11:04;33.40;42.80
45283;DHT22;31023;44.994;1.796;2023-07-13T08:13:29;34.90;42.30
45283;DHT22;31023;44.994;1.796;2023-07-13T08:15:55;35.60;41.20
45283;DHT22;31023;44.994;1.796;2023-07-13T08:18:20;29.80;45.60
45283;DHT22;31023;44.994;1.796;2023-07-13T08:20:46;26.60;54.30
45283;DHT22;31023;44.994;1.796;2023-07-13T08:23:11;24.90;58.90
45283;DHT22;31023;44.994;1.796;2023-07-13T08:25:37;24.80;57.80
45283;DHT22;31023;44.994;1.796;2023-07-13T08:28:03;25.90;59.20
45283;DHT22;31023;44.994;1.796;2023-07-13T08:30:29;31.10;49.50
45283;DHT22;31023;44.994;1.796;2023-07-13T08:32:55;34.90;45.10
45283;DHT22;31023;44.994;1.796;2023-07-13T08:35:20;35.40;43.70
45283;DHT22;31023;44.994;1.796;2023-07-13T08:37:46;36.50;39.70
45283;DHT22;31023;44.994;1.796;2023-07-13T08:40:11;35.50;39.80
45283;DHT22;31023;44.994;1.796;2023-07-13T08:42:39;30.40;47.00
45283;DHT22;31023;44.994;1.796;2023-07-13T08:47:47;26.10;55.50
45283;DHT22;31023;44.994;1.796;2023-07-13T08:50:14;25.40;55.20
45283;DHT22;31023;44.994;1.796;2023-07-13T08:52:41;29.70;51.80
45283;DHT22;31023;44.994;1.796;2023-07-13T08:55:13;35.40;43.40
45283;DHT22;31023;44.994;1.796;2023-07-13T08:57:40;36.60;39.60
45283;DHT22;31023;44.994;1.796;2023-07-13T09:00:10;34.40;40.40
45283;DHT22;31023;44.994;1.796;2023-07-13T09:05:22;27.40;49.50
45283;DHT22;31023;44.994;1.796;2023-07-13T09:08:08;27.20;53.30
45283;DHT22;31023;44.994;1.796;2023-07-13T09:10:41;33.00;43.90
45283;DHT22;31023;44.994;1.796;2023-07-13T09:15:46;30.70;46.60
45283;DHT22;31023;44.994;1.796;2023-07-13T09:18:18;32.80;46.80
45283;DHT22;31023;44.994;1.796;2023-07-13T09:20:47;33.50;42.80
45283;DHT22;31023;44.994;1.796;2023-07-13T09:23:14;29.40;47.50
45283;DHT22;31023;44.994;1.796;2023-07-13T09:25:40;26.60;51.20
45283;DHT22;31023;44.994;1.796;2023-07-13T09:28:13;29.10;50.80
45283;DHT22;31023;44.994;1.796;2023-07-13T09:33:12;34.50;40.20
45283;DHT22;31023;44.994;1.796;2023-07-13T09:35:37;28.40;50.10
45283;DHT22;31023;44.994;1.796;2023-07-13T09:38:13;26.50;53.50
45283;DHT22;31023;44.994;1.796;2023-07-13T09:40:44;25.30;54.20
45283;DHT22;31023;44.994;1.796;2023-07-13T09:43:13;25.60;54.70
45283;DHT22;31023;44.994;1.796;2023-07-13T09:45:39;27.60;52.30
45283;DHT22;31023;44.994;1.796;2023-07-13T09:48:12;28.70;48.90
45283;DHT22;31023;44.994;1.796;2023-07-13T09:50:38;34.50;43.90
45283;DHT22;31023;44.994;1.796;2023-07-13T09:53:04;37.10;41.20
45283;DHT22;31023;44.994;1.796;2023-07-13T09:55:37;38.50;38.10
45283;DHT22;31023;44.994;1.796;2023-07-13T09:58:09;37.70;33.60
45283;DHT22;31023;44.994;1.796;2023-07-13T10:00:36;38.10;37.10
45283;DHT22;31023;44.994;1.796;2023-07-13T10:03:05;38.40;37.90
45283;DHT22;31023;44.994;1.796;2023-07-13T10:05:39;32.80;40.30
45283;DHT22;31023;44.994;1.796;2023-07-13T10:08:04;28.70;46.90
45283;DHT22;31023;44.994;1.796;2023-07-13T10:10:32;26.80;50.80
45283;DHT22;31023;44.994;1.796;2023-07-13T10:12:58;33.20;45.50
45283;DHT22;31023;44.994;1.796;2023-07-13T10:15:24;35.70;42.40
45283;DHT22;31023;44.994;1.796;2023-07-13T10:17:52;37.20;40.10
45283;DHT22;31023;44.994;1.796;2023-07-13T10:20:18;36.70;38.40
45283;DHT22;31023;44.994;1.796;2023-07-13T10:23:00;34.50;39.00
45283;DHT22;31023;44.994;1.796;2023-07-13T10:25:31;35.10;41.20
45283;DHT22;31023;44.994;1.796;2023-07-13T10:28:02;33.30;38.20
45283;DHT22;31023;44.994;1.796;2023-07-13T10:30:32;29.40;44.90
45283;DHT22;31023;44.994;1.796;2023-07-13T10:32:58;28.80;44.90
45283;DHT22;31023;44.994;1.796;2023-07-13T10:35:25;32.80;39.60
45283;DHT22;31023;44.994;1.796;2023-07-13T10:37:53;35.60;36.70
45283;DHT22;31023;44.994;1.796;2023-07-13T10:40:25;36.00;33.70
45283;DHT22;31023;44.994;1.796;2023-07-13T10:42:51;36.40;36.20
45283;DHT22;31023;44.994;1.796;2023-07-13T10:45:23;35.70;31.60
45283;DHT22;31023;44.994;1.796;2023-07-13T10:47:49;34.90;33.10
45283;DHT22;31023;44.994;1.796;2023-07-13T10:50:20;33.40;34.80
45283;DHT22;31023;44.994;1.796;2023-07-13T10:52:48;33.30;36.10
45283;DHT22;31023;44.994;1.796;2023-07-13T10:55:35;31.70;41.10
45283;DHT22;31023;44.994;1.796;2023-07-13T10:58:02;30.40;41.70
45283;DHT22;31023;44.994;1.796;2023-07-13T11:00:30;29.80;43.50
45283;DHT22;31023;44.994;1.796;2023-07-13T11:02:56;29.50;40.00
45283;DHT22;31023;44.994;1.796;2023-07-13T11:07:54;28.40;45.70
45283;DHT22;31023;44.994;1.796;2023-07-13T11:13:27;26.90;50.80
45283;DHT22;31023;44.994;1.796;2023-07-13T11:15:50;26.80;49.40
45283;DHT22;31023;44.994;1.796;2023-07-13T11:18:20;28.00;49.00
45283;DHT22;31023;44.994;1.796;2023-07-13T11:20:46;28.40;47.80
45283;DHT22;31023;44.994;1.796;2023-07-13T11:25:41;27.50;51.00
45283;DHT22;31023;44.994;1.796;2023-07-13T11:38:22;26.60;49.60
45283;DHT22;31023;44.994;1.796;2023-07-13T11:40:50;26.70;50.40
45283;DHT22;31023;44.994;1.796;2023-07-13T11:43:17;26.50;47.50
45283;DHT22;31023;44.994;1.796;2023-07-13T11:45:43;26.60;48.20
45283;DHT22;31023;44.994;1.796;2023-07-13T11:48:23;26.30;45.80
45283;DHT22;31023;44.994;1.796;2023-07-13T11:50:53;26.70;48.90
45283;DHT22;31023;44.994;1.796;2023-07-13T11:53:20;26.60;47.10
45283;DHT22;31023;44.994;1.796;2023-07-13T11:55:46;26.40;46.90
45283;DHT22;31023;44.994;1.796;2023-07-13T11:58:14;26.20;49.40
45283;DHT22;31023;44.994;1.796;2023-07-13T12:00:42;26.50;50.90
45283;DHT22;31023;44.994;1.796;2023-07-13T12:03:10;26.70;49.60
45283;DHT22;31023;44.994;1.796;2023-07-13T12:05:36;26.70;49.70
45283;DHT22;31023;44.994;1.796;2023-07-13T12:08:08;26.20;48.90
45283;DHT22;31023;44.994;1.796;2023-07-13T12:10:34;26.70;50.60
45283;DHT22;31023;44.994;1.796;2023-07-13T12:13:04;26.80;51.20
45283;DHT22;31023;44.994;1.796;2023-07-13T12:18:01;26.60;51.50
45283;DHT22;31023;44.994;1.796;2023-07-13T12:20:27;27.00;49.30
45283;DHT22;31023;44.994;1.796;2023-07-13T12:22:55;26.90;49.60
45283;DHT22;31023;44.994;1.796;2023-07-13T12:25:22;27.10;50.10
45283;DHT22;31023;44.994;1.796;2023-07-13T12:27:48;26.70;48.30
45283;DHT22;31023;44.994;1.796;2023-07-13T12:30:21;26.50;49.40
45283;DHT22;31023;44.994;1.796;2023-07-13T12:33:07;26.10;46.20
45283;DHT22;31023;44.994;1.796;2023-07-13T12:35:38;26.50;51.10
45283;DHT22;31023;44.994;1.796;2023-07-13T12:38:07;26.30;50.80
45283;DHT22;31023;44.994;1.796;2023-07-13T12:40:34;26.30;52.50
45283;DHT22;31023;44.994;1.796;2023-07-13T12:43:02;26.30;50.30
45283;DHT22;31023;44.994;1.796;2023-07-13T12:45:30;26.40;50.10
45283;DHT22;31023;44.994;1.796;2023-07-13T12:48:06;26.50;51.30
45283;DHT22;31023;44.994;1.796;2023-07-13T12:50:38;26.50;47.40
45283;DHT22;31023;44.994;1.796;2023-07-13T12:53:06;26.60;48.60
45283;DHT22;31023;44.994;1.796;2023-07-13T12:55:56;26.10;46.20
45283;DHT22;31023;44.994;1.796;2023-07-13T12:58:30;25.80;45.30
45283;DHT22;31023;44.994;1.796;2023-07-13T13:00:56;25.70;44.30
45283;DHT22;31023;44.994;1.796;2023-07-13T13:03:30;25.40;46.10
45283;DHT22;31023;44.994;1.796;2023-07-13T13:06:00;25.90;47.80
45283;DHT22;31023;44.994;1.796;2023-07-13T13:08:28;25.90;50.20
45283;DHT22;31023;44.994;1.796;2023-07-13T13:10:54;25.80;52.90
45283;DHT22;31023;44.994;1.796;2023-07-13T13:13:19;25.30;54.90
45283;DHT22;31023;44.994;1.796;2023-07-13T13:15:45;25.70;51.30
45283;DHT22;31023;44.994;1.796;2023-07-13T13:18:14;25.70;53.50
45283;DHT22;31023;44.994;1.796;2023-07-13T13:20:40;25.40;55.00
45283;DHT22;31023;44.994;1.796;2023-07-13T13:23:09;25.00;55.10
45283;DHT22;31023;44.994;1.796;2023-07-13T13:25:36;25.20;55.10
45283;DHT22;31023;44.994;1.796;2023-07-13T13:28:02;24.80;52.50
45283;DHT22;31023;44.994;1.796;2023-07-13T13:30:27;25.10;56.20
45283;DHT22;31023;44.994;1.796;2023-07-13T13:32:53;24.90;54.90
45283;DHT22;31023;44.994;1.796;2023-07-13T13:35:19;25.30;52.30
45283;DHT22;31023;44.994;1.796;2023-07-13T13:37:46;25.40;49.90
45283;DHT22;31023;44.994;1.796;2023-07-13T13:40:16;25.30;51.60
45283;DHT22;31023;44.994;1.796;2023-07-13T13:42:45;25.40;55.50
45283;DHT22;31023;44.994;1.796;2023-07-13T13:45:11;25.50;52.30
45283;DHT22;31023;44.994;1.796;2023-07-13T13:47:38;25.50;51.60
45283;DHT22;31023;44.994;1.796;2023-07-13T13:52:40;25.50;49.50
45283;DHT22;31023;44.994;1.796;2023-07-13T13:55:39;25.20;47.20
45283;DHT22;31023;44.994;1.796;2023-07-13T13:57:57;25.10;48.40
45283;DHT22;31023;44.994;1.796;2023-07-13T14:00:23;25.10;49.40
45283;DHT22;31023;44.994;1.796;2023-07-13T14:02:49;25.00;49.00
45283;DHT22;31023;44.994;1.796;2023-07-13T14:05:23;25.10;48.20
45283;DHT22;31023;44.994;1.796;2023-07-13T14:07:49;25.20;47.80
45283;DHT22;31023;44.994;1.796;2023-07-13T14:10:17;25.10;48.10
45283;DHT22;31023;44.994;1.796;2023-07-13T14:12:47;25.30;47.40
45283;DHT22;31023;44.994;1.796;2023-07-13T14:15:34;25.30;46.00
45283;DHT22;31023;44.994;1.796;2023-07-13T14:17:59;25.10;46.10
45283;DHT22;31023;44.994;1.796;2023-07-13T14:20:25;25.60;45.80
45283;DHT22;31023;44.994;1.796;2023-07-13T14:22:53;25.60;47.00
45283;DHT22;31023;44.994;1.796;2023-07-13T14:25:20;26.00;48.40
45283;DHT22;31023;44.994;1.796;2023-07-13T14:27:46;25.80;48.90
45283;DHT22;31023;44.994;1.796;2023-07-13T14:30:17;25.80;47.90
45283;DHT22;31023;44.994;1.796;2023-07-13T14:32:43;25.90;48.90
45283;DHT22;31023;44.994;1.796;2023-07-13T14:35:16;25.70;47.60
45283;DHT22;31023;44.994;1.796;2023-07-13T14:37:42;25.70;46.00
45283;DHT22;31023;44.994;1.796;2023-07-13T14:42:37;25.40;48.90
45283;DHT22;31023;44.994;1.796;2023-07-13T14:45:03;25.30;51.50
45283;DHT22;31023;44.994;1.796;2023-07-13T14:47:28;25.30;51.50
45283;DHT22;31023;44.994;1.796;2023-07-13T14:49:54;25.20;50.20
45283;DHT22;31023;44.994;1.796;2023-07-13T14:52:20;24.80;49.70
45283;DHT22;31023;44.994;1.796;2023-07-13T14:54:47;24.70;48.50
45283;DHT22;31023;44.994;1.796;2023-07-13T14:57:13;24.60;47.20
45283;DHT22;31023;44.994;1.796;2023-07-13T14:59:39;24.70;49.30
45283;DHT22;31023;44.994;1.796;2023-07-13T15:04:40;25.00;46.40
45283;DHT22;31023;44.994;1.796;2023-07-13T15:07:07;24.90;46.60
45283;DHT22;31023;44.994;1.796;2023-07-13T15:09:34;24.90;46.00
45283;DHT22;31023;44.994;1.796;2023-07-13T15:12:00;24.60;47.10
45283;DHT22;31023;44.994;1.796;2023-07-13T15:14:25;24.70;49.50
45283;DHT22;31023;44.994;1.796;2023-07-13T15:16:51;24.70;48.10
45283;DHT22;31023;44.994;1.796;2023-07-13T15:19:19;24.60;49.20
45283;DHT22;31023;44.994;1.796;2023-07-13T15:21:45;24.50;48.20
45283;DHT22;31023;44.994;1.796;2023-07-13T15:24:11;24.50;48.30
45283;DHT22;31023;44.994;1.796;2023-07-13T15:26:36;24.40;48.80
45283;DHT22;31023;44.994;1.796;2023-07-13T15:29:04;24.40;49.90
45283;DHT22;31023;44.994;1.796;2023-07-13T15:31:29;24.50;50.10
45283;DHT22;31023;44.994;1.796;2023-07-13T15:33:57;24.60;51.00
45283;DHT22;31023;44.994;1.796;2023-07-13T15:36:23;24.70;49.60
45283;DHT22;31023;44.994;1.796;2023-07-13T15:38:51;24.80;49.80
45283;DHT22;31023;44.994;1.796;2023-07-13T15:41:21;24.50;50.50
45283;DHT22;31023;44.994;1.796;2023-07-13T15:43:51;24.10;50.30
45283;DHT22;31023;44.994;1.796;2023-07-13T15:46:18;24.30;52.20
45283;DHT22;31023;44.994;1.796;2023-07-13T15:48:44;24.50;53.70
45283;DHT22;31023;44.994;1.796;2023-07-13T15:51:11;24.30;48.20
45283;DHT22;31023;44.994;1.796;2023-07-13T15:53:38;24.40;50.60
45283;DHT22;31023;44.994;1.796;2023-07-13T15:56:11;24.60;49.80
45283;DHT22;31023;44.994;1.796;2023-07-13T15:58:41;24.70;49.10
45283;DHT22;31023;44.994;1.796;2023-07-13T16:01:08;24.60;48.80
45283;DHT22;31023;44.994;1.796;2023-07-13T16:03:35;24.80;49.90
45283;DHT22;31023;44.994;1.796;2023-07-13T16:06:01;24.70;51.50
45283;DHT22;31023;44.994;1.796;2023-07-13T16:08:27;24.60;51.00
45283;DHT22;31023;44.994;1.796;2023-07-13T16:10:55;24.60;50.00
45283;DHT22;31023;44.994;1.796;2023-07-13T16:13:21;24.40;48.20